Aviation Digital Data Service (ADDS)

Output produced by METARs form (0644 UTC 24 January 2019)
found at http://aviationweather.gov/metar/data/
 
KBPT 240553Z AUTO 29005KT 10SM CLR 01/M01 A3015 RMK AO2 SLP209 T00111011 10056 20011 402000011 51010
KBPT 240530Z 2406/2506 31004KT P6SM SKC 
     FM241200 02005KT P6SM SKC